New Atlantic — WDC9718 — position and weather

sailwx.info

Track history (hours):
 
Tides and Currents Weather Stations Pressure Air Temp Water Temp Dewpoint Dewpoint Depression Visibility Wind Speed Wind Dir Waves Ship Positions

New Atlantic

Owner: EPB LEASING LLC, Seattle, WA. More information available from US FCC via Universal Licensing System and Coast Guard Vessel Documentation Center.

Last reported at 2017-Aug-15 19:54 UTC. Time now 2017-Aug-16 21:50 UTC.
Position N 48°37' W 123°09'.

Length 28 m; draft 2 m.

Type: Pleasure craft. MMSI: 367105860.

Date/timePositionNaut miles runAvg speedWind from/ knotsBaromVisibWave heightAir tempDewpointWater temp
2017-Aug-15 19:54N 48°37' W 123°09'0 0.0
2017-Aug-15 07:04N 48°37' W 123°09'0 0.0
2017-Aug-15 06:40N 48°37' W 123°09'0 0.0
2017-Aug-15 06:28N 48°37' W 123°09'0 0.0
2017-Aug-15 06:00N 48°37' W 123°09'0 0.0
2017-Aug-15 05:26N 48°37' W 123°09'0 0.0
2017-Aug-15 02:02N 48°37' W 123°09'0 0.0
2017-Aug-15 01:46N 48°37' W 123°09'0 0.0
2017-Aug-15 00:38N 48°37' W 123°09'0 0.0
2017-Aug-14 20:57N 48°37' W 123°09'0 0.1
2017-Aug-14 20:30N 48°37' W 123°09'0 0.3
2017-Aug-14 20:00N 48°37' W 123°10'4 7.0
2017-Aug-14 19:30N 48°33' W 123°11'510.5
2017-Aug-14 19:00N 48°28' W 123°13'5 9.7
2017-Aug-14 18:30N 48°24' W 123°17'5 9.3
2017-Aug-14 17:59N 48°25' W 123°23'1 1.5
2017-Aug-14 17:30N 48°25' W 123°22'0 0.0
2017-Aug-14 17:00N 48°25' W 123°22'0 0.0
2017-Aug-14 16:29N 48°25' W 123°22'0 0.0
2017-Aug-14 15:58N 48°25' W 123°22'0 0.0
2017-Aug-14 15:30N 48°25' W 123°22'0 0.0
2017-Aug-14 15:00N 48°25' W 123°22'0 0.0
2017-Aug-14 14:27N 48°25' W 123°22'0 0.0
2017-Aug-14 14:00N 48°25' W 123°22'0 0.0
2017-Aug-14 13:27N 48°25' W 123°22'0 0.0
2017-Aug-14 13:00N 48°25' W 123°22'0 0.0
2017-Aug-14 12:28N 48°25' W 123°22'0 0.0
2017-Aug-14 11:55N 48°25' W 123°22'0 0.0
2017-Aug-14 11:30N 48°25' W 123°22'0 0.0
2017-Aug-14 11:00N 48°25' W 123°22'0 0.0
2017-Aug-14 10:29N 48°25' W 123°22'0 0.0
2017-Aug-14 09:59N 48°25' W 123°22'0 0.0
2017-Aug-14 09:29N 48°25' W 123°22'0 0.0
2017-Aug-14 08:59N 48°25' W 123°22'0 0.0
2017-Aug-14 08:30N 48°25' W 123°22'0 0.0
2017-Aug-14 07:57N 48°25' W 123°22'0 0.0
2017-Aug-14 07:28N 48°25' W 123°22'0 0.0
2017-Aug-14 07:00N 48°25' W 123°22'0 0.0
2017-Aug-14 05:26N 48°25' W 123°22'0 0.0
2017-Aug-14 04:36N 48°25' W 123°22'0 0.0
2017-Aug-14 04:25N 48°25' W 123°22'0 0.0
2017-Aug-14 03:58N 48°25' W 123°22'0 0.0
2017-Aug-14 02:44N 48°25' W 123°22'0 0.0
2017-Aug-14 02:26N 48°25' W 123°22'0 0.0
2017-Aug-14 01:49N 48°25' W 123°22'0 0.0
2017-Aug-14 01:16N 48°25' W 123°22'0 0.0
2017-Aug-14 00:47N 48°25' W 123°22'0 0.0
2017-Aug-14 00:19N 48°25' W 123°22'0 0.0
2017-Aug-13 23:47N 48°25' W 123°22'0 0.0
2017-Aug-13 22:15N 48°25' W 123°22'0 0.0
2017-Aug-13 21:45N 48°25' W 123°22'0 0.0
2017-Aug-13 17:57N 48°25' W 123°22'0 0.0
2017-Aug-13 17:25N 48°25' W 123°22'0 0.0
2017-Aug-13 16:53N 48°25' W 123°22'0 0.0
2017-Aug-13 16:28N 48°25' W 123°22'0 0.0
2017-Aug-13 13:44N 48°25' W 123°22'0 0.0
2017-Aug-13 13:16N 48°25' W 123°22'0 0.0
2017-Aug-13 00:31N 48°25' W 123°22'0 0.0
2017-Aug-13 00:30N 48°25' W 123°22'0 0.0
2017-Aug-13 00:00N 48°25' W 123°22'0 0.0
2017-Aug-12 23:30N 48°25' W 123°22'0 0.0
2017-Aug-12 23:00N 48°25' W 123°22'0 0.0
2017-Aug-12 22:30N 48°25' W 123°22'0 0.0
2017-Aug-12 22:00N 48°25' W 123°22'0 0.0
2017-Aug-12 21:30N 48°25' W 123°22'0 0.0
2017-Aug-12 21:00N 48°25' W 123°22'0 0.0
2017-Aug-12 20:29N 48°25' W 123°22'0 0.0
2017-Aug-12 19:58N 48°25' W 123°22'0 0.0
2017-Aug-12 19:30N 48°25' W 123°22'0 0.0
2017-Aug-12 19:00N 48°25' W 123°22'0 0.0
2017-Aug-12 18:27N 48°25' W 123°22'0 0.0
2017-Aug-12 18:00N 48°25' W 123°22'0 0.0
2017-Aug-12 17:30N 48°25' W 123°22'0 0.0
2017-Aug-12 17:00N 48°25' W 123°22'0 0.0
2017-Aug-12 16:29N 48°25' W 123°22'0 0.0
2017-Aug-12 16:00N 48°25' W 123°22'0 0.0
2017-Aug-12 15:30N 48°25' W 123°22'0 0.0
2017-Aug-12 14:58N 48°25' W 123°22'0 0.0
2017-Aug-12 14:29N 48°25' W 123°22'0 0.0
2017-Aug-12 13:47N 48°25' W 123°22'0 0.0
2017-Aug-12 13:30N 48°25' W 123°22'0 0.0
2017-Aug-12 11:00N 48°25' W 123°22'0 0.0
2017-Aug-12 10:27N 48°25' W 123°22'0 0.0
2017-Aug-12 10:00N 48°25' W 123°22'0 0.0
2017-Aug-12 09:30N 48°25' W 123°22'0 0.0
2017-Aug-12 08:46N 48°25' W 123°22'0 0.0
2017-Aug-12 06:44N 48°25' W 123°22'0 0.0
2017-Aug-12 06:15N 48°25' W 123°22'0 0.0
2017-Aug-12 05:56N 48°25' W 123°22'0 0.0
2017-Aug-12 05:30N 48°25' W 123°22'0 0.0
2017-Aug-12 05:00N 48°25' W 123°22'0 0.0
2017-Aug-12 04:26N 48°25' W 123°22'0 0.0
2017-Aug-12 03:48N 48°25' W 123°22'0 0.0
2017-Aug-12 03:30N 48°25' W 123°22'0 0.0
2017-Aug-12 02:57N 48°25' W 123°22'0 0.0
2017-Aug-12 02:30N 48°25' W 123°22'0 0.0
2017-Aug-12 02:00N 48°25' W 123°22'0 0.0
2017-Aug-12 01:30N 48°25' W 123°22'0 0.0
2017-Aug-12 01:00N 48°25' W 123°22'0 0.0
2017-Aug-12 00:21N 48°25' W 123°22'0 0.0
2017-Aug-11 23:57N 48°25' W 123°22'0 0.0
2017-Aug-11 23:30N 48°25' W 123°22'0 0.0
2017-Aug-11 23:00N 48°25' W 123°22'0 0.0
2017-Aug-11 22:30N 48°25' W 123°22'0 0.0
2017-Aug-11 21:59N 48°25' W 123°22'0 0.0
2017-Aug-11 21:30N 48°25' W 123°22'0 0.0
2017-Aug-11 20:58N 48°25' W 123°22'0 0.0
2017-Aug-11 20:28N 48°25' W 123°22'0 0.0
2017-Aug-11 20:00N 48°25' W 123°22'0 0.0
2017-Aug-11 19:30N 48°25' W 123°22'0 0.0
2017-Aug-11 19:00N 48°25' W 123°22'0 0.0
2017-Aug-11 18:30N 48°25' W 123°22'0 0.0
2017-Aug-11 18:00N 48°25' W 123°22'0 0.0
2017-Aug-11 17:30N 48°25' W 123°22'0 0.0
2017-Aug-11 17:00N 48°25' W 123°22'0 0.0
2017-Aug-11 16:30N 48°25' W 123°22'0 0.0
2017-Aug-11 16:00N 48°25' W 123°22'0 0.0
2017-Aug-11 15:30N 48°25' W 123°22'0 0.0
2017-Aug-11 15:00N 48°25' W 123°22'0 0.0
2017-Aug-11 13:59N 48°25' W 123°22'0 0.0
2017-Aug-11 13:27N 48°25' W 123°22'0 0.0
2017-Aug-11 12:58N 48°25' W 123°22'0 0.0
2017-Aug-11 12:28N 48°25' W 123°22'0 0.0
2017-Aug-11 11:59N 48°25' W 123°22'0 0.0
2017-Aug-11 11:29N 48°25' W 123°22'0 0.0
2017-Aug-11 10:56N 48°25' W 123°22'0 0.0
2017-Aug-11 10:23N 48°25' W 123°22'0 0.0
2017-Aug-11 09:22N 48°25' W 123°22'0 0.0
2017-Aug-11 08:37N 48°25' W 123°22'0 0.0
2017-Aug-11 08:30N 48°25' W 123°22'0 0.0
2017-Aug-11 07:56N 48°25' W 123°22'0 0.0
2017-Aug-11 07:28N 48°25' W 123°22'0 0.0
2017-Aug-11 07:00N 48°25' W 123°22'0 0.0
2017-Aug-11 06:29N 48°25' W 123°22'0 0.0
2017-Aug-11 05:56N 48°25' W 123°22'0 0.0
2017-Aug-11 05:28N 48°25' W 123°22'0 0.0
2017-Aug-11 04:41N 48°25' W 123°22'0 0.0
2017-Aug-11 04:11N 48°25' W 123°22'0 0.0
2017-Aug-11 03:58N 48°25' W 123°22'0 0.0
2017-Aug-11 03:18N 48°25' W 123°22'0 0.0
2017-Aug-10 23:56N 48°25' W 123°22'0 0.0
2017-Aug-10 21:03N 48°25' W 123°22'0 2.3
2017-Aug-10 21:00N 48°25' W 123°22'0 0.5
2017-Aug-10 20:30N 48°25' W 123°23'0 0.0
2017-Aug-10 20:00N 48°25' W 123°23'1 2.1
2017-Aug-10 19:30N 48°24' W 123°23'510.1
2017-Aug-10 19:00N 48°24' W 123°15'613.0
2017-Aug-10 18:31N 48°30' W 123°12'611.7
2017-Aug-10 18:00N 48°36' W 123°10'1 1.3
2017-Aug-10 17:15N 48°37' W 123°09'0 0.0
2017-Aug-10 15:06N 48°37' W 123°09'0 0.0
2017-Aug-10 14:59N 48°37' W 123°09'0 0.0
2017-Aug-10 14:27N 48°37' W 123°09'0 0.0
2017-Aug-10 13:57N 48°37' W 123°09'0 0.0
2017-Aug-10 13:27N 48°37' W 123°09'0 0.0
2017-Aug-10 12:40N 48°37' W 123°09'0 0.0
2017-Aug-10 09:28N 48°37' W 123°09'0 0.0
2017-Aug-10 08:22N 48°37' W 123°09'0 0.0
2017-Aug-08 20:43N 48°37' W 123°09'0 0.0
2017-Aug-08 20:23N 48°37' W 123°09'0 0.0
2017-Aug-08 19:42N 48°37' W 123°09'0 0.0
2017-Aug-08 19:25N 48°37' W 123°09'  
Track history (hours):
 
Tides and Currents Weather Stations Pressure Air Temp Water Temp Dewpoint Dewpoint Depression Visibility Wind Speed Wind Dir Waves Ship Positions

New Atlantic

Owner: EPB LEASING LLC, Seattle, WA. More information available from US FCC via Universal Licensing System and Coast Guard Vessel Documentation Center.

Last reported at 2017-Aug-15 19:54 UTC. Time now 2017-Aug-16 21:50 UTC.
Position N 48°37' W 123°09'.

Length 28 m; draft 2 m.

Type: Pleasure craft. MMSI: 367105860.

Date/timePositionNaut miles runAvg speedWind from/ knotsBaromVisibWave heightAir tempDewpointWater temp
2017-Aug-15 19:54N 48°37' W 123°09'0 0.0
2017-Aug-15 07:04N 48°37' W 123°09'0 0.0
2017-Aug-15 06:40N 48°37' W 123°09'0 0.0
2017-Aug-15 06:28N 48°37' W 123°09'0 0.0
2017-Aug-15 06:00N 48°37' W 123°09'0 0.0
2017-Aug-15 05:26N 48°37' W 123°09'0 0.0
2017-Aug-15 02:02N 48°37' W 123°09'0 0.0
2017-Aug-15 01:46N 48°37' W 123°09'0 0.0
2017-Aug-15 00:38N 48°37' W 123°09'0 0.0
2017-Aug-14 20:57N 48°37' W 123°09'0 0.1
2017-Aug-14 20:30N 48°37' W 123°09'0 0.3
2017-Aug-14 20:00N 48°37' W 123°10'4 7.0
2017-Aug-14 19:30N 48°33' W 123°11'510.5
2017-Aug-14 19:00N 48°28' W 123°13'5 9.7
2017-Aug-14 18:30N 48°24' W 123°17'5 9.3
2017-Aug-14 17:59N 48°25' W 123°23'1 1.5
2017-Aug-14 17:30N 48°25' W 123°22'0 0.0
2017-Aug-14 17:00N 48°25' W 123°22'0 0.0
2017-Aug-14 16:29N 48°25' W 123°22'0 0.0
2017-Aug-14 15:58N 48°25' W 123°22'0 0.0
2017-Aug-14 15:30N 48°25' W 123°22'0 0.0
2017-Aug-14 15:00N 48°25' W 123°22'0 0.0
2017-Aug-14 14:27N 48°25' W 123°22'0 0.0
2017-Aug-14 14:00N 48°25' W 123°22'0 0.0
2017-Aug-14 13:27N 48°25' W 123°22'0 0.0
2017-Aug-14 13:00N 48°25' W 123°22'0 0.0
2017-Aug-14 12:28N 48°25' W 123°22'0 0.0
2017-Aug-14 11:55N 48°25' W 123°22'0 0.0
2017-Aug-14 11:30N 48°25' W 123°22'0 0.0
2017-Aug-14 11:00N 48°25' W 123°22'0 0.0
2017-Aug-14 10:29N 48°25' W 123°22'0 0.0
2017-Aug-14 09:59N 48°25' W 123°22'0 0.0
2017-Aug-14 09:29N 48°25' W 123°22'0 0.0
2017-Aug-14 08:59N 48°25' W 123°22'0 0.0
2017-Aug-14 08:30N 48°25' W 123°22'0 0.0
2017-Aug-14 07:57N 48°25' W 123°22'0 0.0
2017-Aug-14 07:28N 48°25' W 123°22'0 0.0
2017-Aug-14 07:00N 48°25' W 123°22'0 0.0
2017-Aug-14 05:26N 48°25' W 123°22'0 0.0
2017-Aug-14 04:36N 48°25' W 123°22'0 0.0
2017-Aug-14 04:25N 48°25' W 123°22'0 0.0
2017-Aug-14 03:58N 48°25' W 123°22'0 0.0
2017-Aug-14 02:44N 48°25' W 123°22'0 0.0
2017-Aug-14 02:26N 48°25' W 123°22'0 0.0
2017-Aug-14 01:49N 48°25' W 123°22'0 0.0
2017-Aug-14 01:16N 48°25' W 123°22'0 0.0
2017-Aug-14 00:47N 48°25' W 123°22'0 0.0
2017-Aug-14 00:19N 48°25' W 123°22'0 0.0
2017-Aug-13 23:47N 48°25' W 123°22'0 0.0
2017-Aug-13 22:15N 48°25' W 123°22'0 0.0
2017-Aug-13 21:45N 48°25' W 123°22'0 0.0
2017-Aug-13 17:57N 48°25' W 123°22'0 0.0
2017-Aug-13 17:25N 48°25' W 123°22'0 0.0
2017-Aug-13 16:53N 48°25' W 123°22'0 0.0
2017-Aug-13 16:28N 48°25' W 123°22'0 0.0
2017-Aug-13 13:44N 48°25' W 123°22'0 0.0
2017-Aug-13 13:16N 48°25' W 123°22'0 0.0
2017-Aug-13 00:31N 48°25' W 123°22'0 0.0
2017-Aug-13 00:30N 48°25' W 123°22'0 0.0
2017-Aug-13 00:00N 48°25' W 123°22'0 0.0
2017-Aug-12 23:30N 48°25' W 123°22'0 0.0
2017-Aug-12 23:00N 48°25' W 123°22'0 0.0
2017-Aug-12 22:30N 48°25' W 123°22'0 0.0
2017-Aug-12 22:00N 48°25' W 123°22'0 0.0
2017-Aug-12 21:30N 48°25' W 123°22'0 0.0
2017-Aug-12 21:00N 48°25' W 123°22'0 0.0
2017-Aug-12 20:29N 48°25' W 123°22'0 0.0
2017-Aug-12 19:58N 48°25' W 123°22'0 0.0
2017-Aug-12 19:30N 48°25' W 123°22'0 0.0
2017-Aug-12 19:00N 48°25' W 123°22'0 0.0
2017-Aug-12 18:27N 48°25' W 123°22'0 0.0
2017-Aug-12 18:00N 48°25' W 123°22'0 0.0
2017-Aug-12 17:30N 48°25' W 123°22'0 0.0
2017-Aug-12 17:00N 48°25' W 123°22'0 0.0
2017-Aug-12 16:29N 48°25' W 123°22'0 0.0
2017-Aug-12 16:00N 48°25' W 123°22'0 0.0
2017-Aug-12 15:30N 48°25' W 123°22'0 0.0
2017-Aug-12 14:58N 48°25' W 123°22'0 0.0
2017-Aug-12 14:29N 48°25' W 123°22'0 0.0
2017-Aug-12 13:47N 48°25' W 123°22'0 0.0
2017-Aug-12 13:30N 48°25' W 123°22'0 0.0
2017-Aug-12 11:00N 48°25' W 123°22'0 0.0
2017-Aug-12 10:27N 48°25' W 123°22'0 0.0
2017-Aug-12 10:00N 48°25' W 123°22'0 0.0
2017-Aug-12 09:30N 48°25' W 123°22'0 0.0
2017-Aug-12 08:46N 48°25' W 123°22'0 0.0
2017-Aug-12 06:44N 48°25' W 123°22'0 0.0
2017-Aug-12 06:15N 48°25' W 123°22'0 0.0
2017-Aug-12 05:56N 48°25' W 123°22'0 0.0
2017-Aug-12 05:30N 48°25' W 123°22'0 0.0
2017-Aug-12 05:00N 48°25' W 123°22'0 0.0
2017-Aug-12 04:26N 48°25' W 123°22'0 0.0
2017-Aug-12 03:48N 48°25' W 123°22'0 0.0
2017-Aug-12 03:30N 48°25' W 123°22'0 0.0
2017-Aug-12 02:57N 48°25' W 123°22'0 0.0
2017-Aug-12 02:30N 48°25' W 123°22'0 0.0
2017-Aug-12 02:00N 48°25' W 123°22'0 0.0
2017-Aug-12 01:30N 48°25' W 123°22'0 0.0
2017-Aug-12 01:00N 48°25' W 123°22'0 0.0
2017-Aug-12 00:21N 48°25' W 123°22'0 0.0
2017-Aug-11 23:57N 48°25' W 123°22'0 0.0
2017-Aug-11 23:30N 48°25' W 123°22'0 0.0
2017-Aug-11 23:00N 48°25' W 123°22'0 0.0
2017-Aug-11 22:30N 48°25' W 123°22'0 0.0
2017-Aug-11 21:59N 48°25' W 123°22'0 0.0
2017-Aug-11 21:30N 48°25' W 123°22'0 0.0
2017-Aug-11 20:58N 48°25' W 123°22'0 0.0
2017-Aug-11 20:28N 48°25' W 123°22'0 0.0
2017-Aug-11 20:00N 48°25' W 123°22'0 0.0
2017-Aug-11 19:30N 48°25' W 123°22'0 0.0
2017-Aug-11 19:00N 48°25' W 123°22'0 0.0
2017-Aug-11 18:30N 48°25' W 123°22'0 0.0
2017-Aug-11 18:00N 48°25' W 123°22'0 0.0
2017-Aug-11 17:30N 48°25' W 123°22'0 0.0
2017-Aug-11 17:00N 48°25' W 123°22'0 0.0
2017-Aug-11 16:30N 48°25' W 123°22'0 0.0
2017-Aug-11 16:00N 48°25' W 123°22'0 0.0
2017-Aug-11 15:30N 48°25' W 123°22'0 0.0
2017-Aug-11 15:00N 48°25' W 123°22'0 0.0
2017-Aug-11 13:59N 48°25' W 123°22'0 0.0
2017-Aug-11 13:27N 48°25' W 123°22'0 0.0
2017-Aug-11 12:58N 48°25' W 123°22'0 0.0
2017-Aug-11 12:28N 48°25' W 123°22'0 0.0
2017-Aug-11 11:59N 48°25' W 123°22'0 0.0
2017-Aug-11 11:29N 48°25' W 123°22'0 0.0
2017-Aug-11 10:56N 48°25' W 123°22'0 0.0
2017-Aug-11 10:23N 48°25' W 123°22'0 0.0
2017-Aug-11 09:22N 48°25' W 123°22'0 0.0
2017-Aug-11 08:37N 48°25' W 123°22'0 0.0
2017-Aug-11 08:30N 48°25' W 123°22'0 0.0
2017-Aug-11 07:56N 48°25' W 123°22'0 0.0
2017-Aug-11 07:28N 48°25' W 123°22'0 0.0
2017-Aug-11 07:00N 48°25' W 123°22'0 0.0
2017-Aug-11 06:29N 48°25' W 123°22'0 0.0
2017-Aug-11 05:56N 48°25' W 123°22'0 0.0
2017-Aug-11 05:28N 48°25' W 123°22'0 0.0
2017-Aug-11 04:41N 48°25' W 123°22'0 0.0
2017-Aug-11 04:11N 48°25' W 123°22'0 0.0
2017-Aug-11 03:58N 48°25' W 123°22'0 0.0
2017-Aug-11 03:18N 48°25' W 123°22'0 0.0
2017-Aug-10 23:56N 48°25' W 123°22'0 0.0
2017-Aug-10 21:03N 48°25' W 123°22'0 2.3
2017-Aug-10 21:00N 48°25' W 123°22'0 0.5
2017-Aug-10 20:30N 48°25' W 123°23'0 0.0
2017-Aug-10 20:00N 48°25' W 123°23'1 2.1
2017-Aug-10 19:30N 48°24' W 123°23'510.1
2017-Aug-10 19:00N 48°24' W 123°15'613.0
2017-Aug-10 18:31N 48°30' W 123°12'611.7
2017-Aug-10 18:00N 48°36' W 123°10'1 1.3
2017-Aug-10 17:15N 48°37' W 123°09'0 0.0
2017-Aug-10 15:06N 48°37' W 123°09'0 0.0
2017-Aug-10 14:59N 48°37' W 123°09'0 0.0
2017-Aug-10 14:27N 48°37' W 123°09'0 0.0
2017-Aug-10 13:57N 48°37' W 123°09'0 0.0
2017-Aug-10 13:27N 48°37' W 123°09'0 0.0
2017-Aug-10 12:40N 48°37' W 123°09'0 0.0
2017-Aug-10 09:28N 48°37' W 123°09'0 0.0
2017-Aug-10 08:22N 48°37' W 123°09'0 0.0
2017-Aug-08 20:43N 48°37' W 123°09'0 0.0
2017-Aug-08 20:23N 48°37' W 123°09'0 0.0
2017-Aug-08 19:42N 48°37' W 123°09'0 0.0
2017-Aug-08 19:25N 48°37' W 123°09'  

Dump ship's entire track history